createdAt,value
2023-04-16T00:00:14.180Z,0.00
2023-04-16T00:01:14.119Z,0.00
2023-04-16T00:02:14.263Z,0.00
2023-04-16T00:03:14.281Z,0.00
2023-04-16T00:04:14.199Z,0.00
2023-04-16T00:05:14.168Z,0.00
2023-04-16T00:06:14.111Z,0.00
2023-04-16T00:07:14.096Z,0.00
2023-04-16T00:08:14.097Z,0.00
2023-04-16T00:09:14.170Z,0.00
2023-04-16T00:10:14.169Z,0.00
2023-04-16T00:11:14.292Z,0.00
2023-04-16T00:12:14.095Z,0.00
2023-04-16T00:13:14.068Z,0.00
2023-04-16T00:14:14.054Z,0.00
2023-04-16T00:15:14.047Z,0.00
2023-04-16T00:16:14.085Z,0.00
2023-04-16T00:17:14.076Z,0.00
2023-04-16T00:18:13.991Z,0.00
2023-04-16T00:19:14.055Z,0.00
2023-04-16T00:20:13.992Z,0.00
2023-04-16T00:21:14.027Z,0.00
2023-04-16T00:22:13.968Z,0.00
2023-04-16T00:23:14.036Z,0.00
2023-04-16T00:24:14.073Z,0.00
2023-04-16T00:25:13.977Z,0.00
2023-04-16T00:26:13.952Z,0.00
2023-04-16T00:27:14.051Z,0.00
2023-04-16T00:28:13.953Z,0.00
2023-04-16T00:29:14.005Z,0.00
2023-04-16T00:30:13.956Z,0.00
2023-04-16T00:31:13.983Z,0.00
2023-04-16T00:32:13.924Z,0.00
2023-04-16T00:33:13.907Z,0.00
2023-04-16T00:34:13.893Z,0.00
2023-04-16T00:35:13.952Z,0.00
2023-04-16T00:36:13.888Z,0.00
2023-04-16T00:37:13.911Z,0.00
2023-04-16T00:38:13.862Z,0.00
2023-04-16T00:39:13.893Z,0.00
2023-04-16T00:40:13.843Z,0.00
2023-04-16T00:41:13.901Z,0.00
2023-04-16T00:42:14.018Z,0.00
2023-04-16T00:43:13.911Z,0.00
2023-04-16T00:44:13.851Z,0.00
2023-04-16T00:45:13.792Z,0.00
2023-04-16T00:46:13.844Z,0.00
2023-04-16T00:47:13.924Z,0.00
2023-04-16T00:48:13.786Z,0.00
2023-04-16T00:49:13.806Z,0.00
2023-04-16T00:50:13.791Z,0.00
2023-04-16T00:51:13.772Z,0.00
2023-04-16T00:52:13.755Z,0.00
2023-04-16T00:53:13.784Z,0.00
2023-04-16T00:54:13.751Z,0.00
2023-04-16T00:55:13.784Z,0.00
2023-04-16T00:56:13.729Z,0.00
2023-04-16T00:57:13.703Z,0.00
2023-04-16T00:58:13.799Z,0.00
2023-04-16T00:59:13.784Z,0.00
2023-04-16T01:00:13.710Z,0.00
2023-04-16T01:01:13.896Z,0.00
2023-04-16T01:02:13.874Z,0.00
2023-04-16T01:03:13.813Z,0.00
2023-04-16T01:04:13.758Z,0.00
2023-04-16T01:05:14.025Z,0.00
2023-04-16T01:06:13.677Z,0.00
2023-04-16T01:07:13.661Z,0.00
2023-04-16T01:08:13.672Z,0.00
2023-04-16T01:09:13.690Z,0.00
2023-04-16T01:10:13.668Z,0.00
2023-04-16T01:11:53.866Z,0.00
2023-04-16T01:12:14.654Z,0.00
2023-04-16T01:13:13.625Z,0.00
2023-04-16T01:14:13.753Z,0.00
2023-04-16T01:15:13.623Z,0.00
2023-04-16T01:16:13.637Z,0.00
2023-04-16T01:17:13.754Z,0.00
2023-04-16T01:18:13.613Z,0.00
2023-04-16T01:19:13.586Z,0.00
2023-04-16T01:20:13.619Z,0.00
2023-04-16T01:21:13.567Z,0.00
2023-04-16T01:22:13.587Z,0.00
2023-04-16T01:23:13.590Z,0.00
2023-04-16T01:24:13.571Z,0.00
2023-04-16T01:25:13.593Z,0.00
2023-04-16T01:26:13.529Z,0.00
2023-04-16T01:27:13.538Z,0.00
2023-04-16T01:28:13.523Z,0.00
2023-04-16T01:29:13.551Z,0.00
2023-04-16T01:30:13.508Z,0.00
2023-04-16T01:31:13.533Z,0.00
2023-04-16T01:32:13.500Z,0.00
2023-04-16T01:33:13.505Z,0.00
2023-04-16T01:34:13.464Z,0.00
2023-04-16T01:35:13.514Z,0.00
2023-04-16T01:36:13.436Z,0.00
2023-04-16T01:37:13.458Z,0.00
2023-04-16T01:38:13.444Z,0.00
2023-04-16T01:39:13.440Z,0.00
2023-04-16T01:40:13.435Z,0.00
2023-04-16T01:41:13.548Z,0.00
2023-04-16T01:42:13.442Z,0.00
2023-04-16T01:43:13.431Z,0.00
2023-04-16T01:44:13.410Z,0.00
2023-04-16T01:45:13.405Z,0.00
2023-04-16T01:46:13.423Z,0.00
2023-04-16T01:47:13.421Z,0.00
2023-04-16T01:48:13.389Z,0.00
2023-04-16T01:49:13.371Z,0.00
2023-04-16T01:50:13.327Z,0.00
2023-04-16T01:51:13.376Z,0.00
2023-04-16T01:52:13.346Z,0.00
2023-04-16T01:53:13.370Z,0.00
2023-04-16T01:54:13.339Z,0.00
2023-04-16T01:55:13.288Z,0.00
2023-04-16T01:56:13.308Z,0.00
2023-04-16T01:57:13.317Z,0.00
2023-04-16T01:58:13.287Z,0.00
2023-04-16T01:59:13.353Z,0.00
2023-04-16T02:00:13.285Z,0.00
2023-04-16T02:01:13.324Z,0.00
2023-04-16T02:02:13.342Z,0.00
2023-04-16T02:03:13.444Z,0.00
2023-04-16T02:05:02.762Z,0.00
2023-04-16T02:05:14.714Z,0.00
2023-04-16T02:06:13.258Z,0.00
2023-04-16T02:07:53.903Z,0.00
2023-04-16T02:08:14.216Z,0.00
2023-04-16T02:09:13.235Z,0.00
2023-04-16T02:10:13.210Z,0.00
2023-04-16T02:11:13.249Z,0.00
2023-04-16T02:12:13.187Z,0.00
2023-04-16T02:13:13.193Z,0.00
2023-04-16T02:14:13.173Z,0.00
2023-04-16T02:15:13.188Z,0.00
2023-04-16T02:16:13.268Z,0.00
2023-04-16T02:17:13.226Z,0.00
2023-04-16T02:18:13.196Z,0.00
2023-04-16T02:19:13.151Z,0.00
2023-04-16T02:20:13.152Z,0.00
2023-04-16T02:21:13.125Z,0.00
2023-04-16T02:22:13.126Z,0.00
2023-04-16T02:23:13.148Z,0.00
2023-04-16T02:24:13.112Z,0.00
2023-04-16T02:25:13.127Z,0.00
2023-04-16T02:26:13.078Z,0.00
2023-04-16T02:27:13.098Z,0.00
2023-04-16T02:28:13.090Z,0.00
2023-04-16T02:29:13.104Z,0.00
2023-04-16T02:30:13.064Z,0.00
2023-04-16T02:31:13.063Z,0.00
2023-04-16T02:32:13.244Z,0.00
2023-04-16T02:33:13.040Z,0.00
2023-04-16T02:34:13.047Z,0.00
2023-04-16T02:35:13.082Z,0.00
2023-04-16T02:36:13.032Z,0.00
2023-04-16T02:37:13.022Z,0.00
2023-04-16T02:38:13.011Z,0.00
2023-04-16T02:39:13.024Z,0.00
2023-04-16T02:40:13.015Z,0.00
2023-04-16T02:41:13.045Z,0.00
2023-04-16T02:42:12.959Z,0.00
2023-04-16T02:43:12.980Z,0.00
2023-04-16T02:44:12.963Z,0.00
2023-04-16T02:45:12.964Z,0.00
2023-04-16T02:46:12.995Z,0.00
2023-04-16T02:47:12.991Z,0.00
2023-04-16T02:48:12.958Z,0.00
2023-04-16T02:49:12.927Z,0.00
2023-04-16T02:50:12.976Z,0.00
2023-04-16T02:51:12.899Z,0.00
2023-04-16T02:52:15.079Z,0.00
2023-04-16T02:53:12.947Z,0.00
2023-04-16T02:54:12.879Z,0.00
2023-04-16T02:55:12.887Z,0.00
2023-04-16T02:56:12.886Z,0.00
2023-04-16T02:57:12.878Z,0.00
2023-04-16T02:58:12.883Z,0.00
2023-04-16T02:59:12.883Z,0.00
2023-04-16T03:00:12.854Z,0.00
2023-04-16T03:01:12.868Z,0.00
2023-04-16T03:02:12.863Z,0.00
2023-04-16T03:03:12.924Z,0.00
2023-04-16T03:04:12.914Z,0.00
2023-04-16T03:05:12.975Z,0.00
2023-04-16T03:06:12.815Z,0.00
2023-04-16T03:07:12.813Z,0.00
2023-04-16T03:08:12.785Z,0.00
2023-04-16T03:09:12.809Z,0.00
2023-04-16T03:10:12.902Z,0.00
2023-04-16T03:11:13.083Z,0.00
2023-04-16T03:12:12.734Z,0.00
2023-04-16T03:13:12.745Z,0.00
2023-04-16T03:14:12.742Z,0.00
2023-04-16T03:15:12.739Z,0.00
2023-04-16T03:16:12.766Z,0.00
2023-04-16T03:17:12.774Z,0.00
2023-04-16T03:18:12.724Z,0.00
2023-04-16T03:19:12.707Z,0.00
2023-04-16T03:20:12.707Z,0.00
2023-04-16T03:21:12.719Z,0.00
2023-04-16T03:22:12.701Z,0.00
2023-04-16T03:23:12.766Z,0.00
2023-04-16T03:24:12.665Z,0.00
2023-04-16T03:25:12.707Z,0.00
2023-04-16T03:26:12.663Z,0.00
2023-04-16T03:27:12.643Z,0.00
2023-04-16T03:28:12.651Z,0.00
2023-04-16T03:29:12.690Z,0.00
2023-04-16T03:30:12.632Z,0.00
2023-04-16T03:31:12.702Z,0.00
2023-04-16T03:32:12.627Z,0.00
2023-04-16T03:33:12.612Z,0.00
2023-04-16T03:34:12.626Z,0.00
2023-04-16T03:35:12.655Z,0.00
2023-04-16T03:36:12.602Z,0.00
2023-04-16T03:37:12.578Z,0.00
2023-04-16T03:38:12.591Z,0.00
2023-04-16T03:39:12.586Z,0.00
2023-04-16T03:40:12.569Z,0.00
2023-04-16T03:41:12.610Z,0.00
2023-04-16T03:42:12.573Z,0.00
2023-04-16T03:43:12.545Z,0.00
2023-04-16T03:44:12.534Z,0.00
2023-04-16T03:45:12.511Z,0.00
2023-04-16T03:46:12.548Z,0.00
2023-04-16T03:47:12.549Z,0.00
2023-04-16T03:48:12.520Z,0.00
2023-04-16T03:49:12.505Z,0.00
2023-04-16T03:50:12.461Z,0.00
2023-04-16T03:51:12.485Z,0.00
2023-04-16T03:52:12.446Z,0.00
2023-04-16T03:53:12.502Z,0.00
2023-04-16T03:54:12.450Z,0.00
2023-04-16T03:55:12.465Z,0.00
2023-04-16T03:56:12.438Z,0.00
2023-04-16T03:57:12.446Z,0.00
2023-04-16T03:58:12.447Z,0.00
2023-04-16T03:59:12.493Z,0.00
2023-04-16T04:00:12.390Z,1.00
2023-04-16T04:01:12.440Z,1.00
2023-04-16T04:02:12.534Z,1.00
2023-04-16T04:03:12.611Z,0.00
2023-04-16T04:04:12.483Z,0.00
2023-04-16T04:05:12.408Z,0.00
2023-04-16T04:06:12.388Z,1.00
2023-04-16T04:07:12.349Z,1.00
2023-04-16T04:08:12.350Z,1.00
2023-04-16T04:09:12.355Z,2.00
2023-04-16T04:10:12.345Z,1.00
2023-04-16T04:11:12.554Z,1.00
2023-04-16T04:12:12.319Z,1.00
2023-04-16T04:13:12.329Z,1.00
2023-04-16T04:14:12.314Z,2.00
2023-04-16T04:15:12.302Z,1.00
2023-04-16T04:16:12.317Z,2.00
2023-04-16T04:17:12.321Z,2.00
2023-04-16T04:18:12.286Z,2.00
2023-04-16T04:19:12.289Z,3.00
2023-04-16T04:20:12.273Z,3.00
2023-04-16T04:21:12.346Z,3.00
2023-04-16T04:22:33.303Z,3.00
2023-04-16T04:23:12.252Z,4.00
2023-04-16T04:24:12.267Z,5.00
2023-04-16T04:25:12.225Z,6.00
2023-04-16T04:26:12.263Z,6.00
2023-04-16T04:27:12.231Z,7.00
2023-04-16T04:28:12.268Z,7.00
2023-04-16T04:29:12.328Z,9.00
2023-04-16T04:30:12.195Z,10.00
2023-04-16T04:31:12.232Z,11.00
2023-04-16T04:32:12.209Z,13.00
2023-04-16T04:33:12.192Z,14.00
2023-04-16T04:34:12.187Z,16.00
2023-04-16T04:35:12.154Z,16.00
2023-04-16T04:36:12.173Z,18.00
2023-04-16T04:37:33.154Z,18.00
2023-04-16T04:38:13.640Z,20.00
2023-04-16T04:39:12.103Z,23.00
2023-04-16T04:40:12.202Z,25.00
2023-04-16T04:41:12.130Z,26.00
2023-04-16T04:42:12.111Z,28.00
2023-04-16T04:43:12.109Z,24.00
2023-04-16T04:44:12.088Z,23.00
2023-04-16T04:45:12.121Z,23.00
2023-04-16T04:46:12.178Z,25.00
2023-04-16T04:47:12.060Z,26.00
2023-04-16T04:48:12.081Z,28.00
2023-04-16T04:49:12.174Z,30.00
2023-04-16T04:50:12.072Z,30.00
2023-04-16T04:51:12.042Z,34.00
2023-04-16T04:52:12.096Z,32.00
2023-04-16T04:53:12.066Z,35.00
2023-04-16T04:54:12.021Z,36.00
2023-04-16T04:55:12.022Z,43.00
2023-04-16T04:56:13.096Z,42.00
2023-04-16T04:57:12.008Z,41.00
2023-04-16T04:58:12.050Z,37.00
2023-04-16T04:59:12.045Z,36.00
2023-04-16T05:00:11.990Z,41.00
2023-04-16T05:01:11.994Z,43.00
2023-04-16T05:02:11.981Z,45.00
2023-04-16T05:03:12.063Z,49.00
2023-04-16T05:04:12.093Z,54.00
2023-04-16T05:05:11.980Z,59.00
2023-04-16T05:06:11.938Z,64.00
2023-04-16T05:07:11.974Z,70.00
2023-04-16T05:08:11.927Z,78.00
2023-04-16T05:09:12.073Z,86.00
2023-04-16T05:10:11.945Z,96.00
2023-04-16T05:11:11.902Z,103.00
2023-04-16T05:12:11.916Z,114.00
2023-04-16T05:13:11.904Z,120.00
2023-04-16T05:14:11.879Z,113.00
2023-04-16T05:15:11.881Z,112.00
2023-04-16T05:16:12.209Z,108.00
2023-04-16T05:17:11.883Z,95.00
2023-04-16T05:18:11.884Z,93.00
2023-04-16T05:19:12.025Z,95.00
2023-04-16T05:20:11.839Z,95.00
2023-04-16T05:21:11.841Z,100.00
2023-04-16T05:22:11.895Z,108.00
2023-04-16T05:23:11.849Z,113.00
2023-04-16T05:24:13.062Z,117.00
2023-04-16T05:25:11.851Z,117.00
2023-04-16T05:26:11.808Z,112.00
2023-04-16T05:27:11.829Z,106.00
2023-04-16T05:28:22.495Z,103.00
2023-04-16T05:29:11.893Z,104.00
2023-04-16T05:30:11.786Z,114.00
2023-04-16T05:31:11.781Z,117.00
2023-04-16T05:32:11.761Z,121.00
2023-04-16T05:33:11.762Z,130.00
2023-04-16T05:34:11.798Z,143.00
2023-04-16T05:35:11.753Z,144.00
2023-04-16T05:36:11.720Z,141.00
2023-04-16T05:37:11.721Z,144.00
2023-04-16T05:38:11.731Z,167.00
2023-04-16T05:39:11.861Z,187.00
2023-04-16T05:40:11.733Z,186.00
2023-04-16T05:41:11.832Z,180.00
2023-04-16T05:42:11.687Z,171.00
2023-04-16T05:43:11.674Z,169.00
2023-04-16T05:44:11.674Z,165.00
2023-04-16T05:45:11.669Z,173.00
2023-04-16T05:46:11.750Z,181.00
2023-04-16T05:47:11.636Z,200.00
2023-04-16T05:48:11.654Z,229.00
2023-04-16T05:49:12.010Z,239.00
2023-04-16T05:50:11.650Z,237.00
2023-04-16T05:51:11.650Z,225.00
2023-04-16T05:52:11.646Z,226.00
2023-04-16T05:53:27.859Z,217.00
2023-04-16T05:54:11.592Z,234.00
2023-04-16T05:55:11.598Z,255.00
2023-04-16T05:56:11.640Z,275.00
2023-04-16T05:57:11.614Z,284.00
2023-04-16T05:58:11.662Z,288.00
2023-04-16T05:59:11.806Z,277.00
2023-04-16T06:00:11.545Z,267.00
2023-04-16T06:01:11.562Z,250.00
2023-04-16T06:02:11.597Z,250.00
2023-04-16T06:03:11.663Z,255.00
2023-04-16T06:04:11.643Z,259.00
2023-04-16T06:05:11.529Z,262.00
2023-04-16T06:06:11.509Z,270.00
2023-04-16T06:07:11.500Z,317.00
2023-04-16T06:08:11.525Z,376.00
2023-04-16T06:09:11.748Z,411.00
2023-04-16T06:10:11.534Z,448.00
2023-04-16T06:11:11.491Z,533.00
2023-04-16T06:12:11.483Z,568.00
2023-04-16T06:13:11.741Z,550.00
2023-04-16T06:14:11.780Z,527.00
2023-04-16T06:15:11.441Z,508.00
2023-04-16T06:16:11.898Z,503.00
2023-04-16T06:17:11.447Z,480.00
2023-04-16T06:18:11.452Z,458.00
2023-04-16T06:19:11.593Z,473.00
2023-04-16T06:20:11.409Z,480.00
2023-04-16T06:21:11.405Z,519.00
2023-04-16T06:22:12.427Z,551.00
2023-04-16T06:23:11.439Z,516.00
2023-04-16T06:24:12.045Z,475.00
2023-04-16T06:25:11.406Z,454.00
2023-04-16T06:26:11.453Z,449.00
2023-04-16T06:27:11.368Z,471.00
2023-04-16T06:28:11.416Z,524.00
2023-04-16T06:29:11.582Z,578.00
2023-04-16T06:30:11.393Z,597.00
2023-04-16T06:31:11.495Z,622.00
2023-04-16T06:32:11.926Z,645.00
2023-04-16T06:33:11.424Z,651.00
2023-04-16T06:34:11.374Z,655.00
2023-04-16T06:35:11.322Z,675.00
2023-04-16T06:36:11.354Z,715.00
2023-04-16T06:37:11.436Z,748.00
2023-04-16T06:38:11.390Z,744.00
2023-04-16T06:39:11.547Z,754.00
2023-04-16T06:40:11.369Z,729.00
2023-04-16T06:41:11.274Z,709.00
2023-04-16T06:42:11.275Z,731.00
2023-04-16T06:43:11.244Z,806.00
2023-04-16T06:44:12.529Z,856.00
2023-04-16T06:45:11.233Z,894.00
2023-04-16T06:46:11.293Z,839.00
2023-04-16T06:47:11.415Z,851.00
2023-04-16T06:48:11.267Z,827.00
2023-04-16T06:49:11.558Z,847.00
2023-04-16T06:50:11.244Z,1007.00
2023-04-16T06:51:11.217Z,1111.00
2023-04-16T06:52:11.310Z,1149.00
2023-04-16T06:53:11.182Z,1329.00
2023-04-16T06:54:11.290Z,1372.00
2023-04-16T06:55:11.236Z,1302.00
2023-04-16T06:56:11.167Z,1460.00
2023-04-16T06:57:11.448Z,1384.00
2023-04-16T06:58:11.475Z,1311.00
2023-04-16T06:59:11.791Z,1341.00
2023-04-16T07:00:11.663Z,1520.00
2023-04-16T07:01:11.647Z,1506.00
2023-04-16T07:02:11.636Z,1491.00
2023-04-16T07:03:11.465Z,1436.00
2023-04-16T07:04:11.839Z,1569.00
2023-04-16T07:05:11.380Z,1475.00
2023-04-16T07:06:11.374Z,1519.00
2023-04-16T07:07:11.860Z,1430.00
2023-04-16T07:08:11.601Z,1626.00
2023-04-16T07:09:11.695Z,1829.00
2023-04-16T07:10:11.473Z,1891.00
2023-04-16T07:11:11.123Z,1623.00
2023-04-16T07:12:11.191Z,1573.00
2023-04-16T07:13:11.347Z,1791.00
2023-04-16T07:14:11.004Z,1961.00
2023-04-16T07:15:11.464Z,2156.00
2023-04-16T07:16:12.239Z,1989.00
2023-04-16T07:17:11.086Z,1978.00
2023-04-16T07:18:11.209Z,1972.00
2023-04-16T07:19:11.516Z,1975.00
2023-04-16T07:20:11.676Z,1886.00
2023-04-16T07:21:11.282Z,1701.00
2023-04-16T07:22:11.886Z,1695.00
2023-04-16T07:23:11.654Z,1592.00
2023-04-16T07:24:11.564Z,1572.00
2023-04-16T07:25:11.798Z,1729.00
2023-04-16T07:26:11.655Z,1655.00
2023-04-16T07:27:10.981Z,1620.00
2023-04-16T07:28:12.163Z,1657.00
2023-04-16T07:29:11.294Z,1689.00
2023-04-16T07:30:11.704Z,1680.00
2023-04-16T07:31:11.653Z,1754.00
2023-04-16T07:32:11.992Z,1643.00
2023-04-16T07:33:11.495Z,1789.00
2023-04-16T07:34:12.222Z,1819.00
2023-04-16T07:35:11.464Z,1815.00
2023-04-16T07:36:11.278Z,1747.00
2023-04-16T07:37:11.192Z,1738.00
2023-04-16T07:38:11.571Z,1967.00
2023-04-16T07:39:11.542Z,1951.00
2023-04-16T07:40:31.677Z,1907.00
2023-04-16T07:41:11.325Z,1880.00
2023-04-16T07:42:11.697Z,1914.00
2023-04-16T07:43:11.297Z,2023.00
2023-04-16T07:44:11.326Z,2104.00
2023-04-16T07:45:11.544Z,2176.00
2023-04-16T07:46:11.917Z,2334.00
2023-04-16T07:47:11.493Z,2373.00
2023-04-16T07:48:11.657Z,2357.00
2023-04-16T07:49:11.782Z,2259.00
2023-04-16T07:50:11.569Z,2106.00
2023-04-16T07:51:11.293Z,2203.00
2023-04-16T07:52:11.766Z,2302.00
2023-04-16T07:53:11.352Z,2390.00
2023-04-16T07:54:11.212Z,2398.00
2023-04-16T07:55:11.223Z,2485.00
2023-04-16T07:56:11.095Z,2435.00
2023-04-16T07:57:11.460Z,2532.00
2023-04-16T07:58:11.983Z,2666.00
2023-04-16T07:59:22.167Z,2517.00
2023-04-16T08:00:12.294Z,2476.00
2023-04-16T08:01:11.471Z,2553.00
2023-04-16T08:02:11.379Z,2608.00
2023-04-16T08:03:11.216Z,2490.00
2023-04-16T08:04:14.177Z,2362.00
2023-04-16T08:05:11.227Z,2234.00
2023-04-16T08:06:11.273Z,2323.00
2023-04-16T08:07:10.828Z,2384.00
2023-04-16T08:08:11.051Z,2426.00
2023-04-16T08:09:11.070Z,2419.00
2023-04-16T08:10:11.412Z,2472.00
2023-04-16T08:11:11.352Z,2318.00
2023-04-16T08:12:11.284Z,2271.00
2023-04-16T08:13:10.859Z,2262.00
2023-04-16T08:14:11.150Z,2315.00
2023-04-16T08:15:11.400Z,2503.00
2023-04-16T08:16:11.909Z,2972.00
2023-04-16T08:17:11.257Z,3074.00
2023-04-16T08:18:11.059Z,3350.00
2023-04-16T08:19:11.348Z,3198.00
2023-04-16T08:20:14.404Z,3257.00
2023-04-16T08:21:11.438Z,3606.00
2023-04-16T08:22:12.382Z,3508.00
2023-04-16T08:23:11.500Z,3270.00
2023-04-16T08:24:11.465Z,2991.00
2023-04-16T08:25:11.162Z,2707.00
2023-04-16T08:26:11.376Z,2560.00
2023-04-16T08:27:18.441Z,2601.00
2023-04-16T08:28:12.884Z,2789.00
2023-04-16T08:29:11.521Z,3235.00
2023-04-16T08:30:11.010Z,3455.00
2023-04-16T08:31:11.345Z,3689.00
2023-04-16T08:32:11.259Z,3546.00
2023-04-16T08:33:11.451Z,3553.00
2023-04-16T08:34:11.776Z,3524.00
2023-04-16T08:35:11.232Z,3515.00
2023-04-16T08:36:11.085Z,3244.00
2023-04-16T08:37:11.165Z,3055.00
2023-04-16T08:38:11.244Z,2946.00
2023-04-16T08:39:11.390Z,3041.00
2023-04-16T08:40:11.219Z,2864.00
2023-04-16T08:41:10.873Z,2870.00
2023-04-16T08:42:18.180Z,2854.00
2023-04-16T08:43:11.165Z,2917.00
2023-04-16T08:44:11.222Z,2689.00
2023-04-16T08:45:11.052Z,2754.00
2023-04-16T08:46:11.502Z,2721.00
2023-04-16T08:47:10.986Z,2728.00
2023-04-16T08:48:11.056Z,2868.00
2023-04-16T08:49:11.440Z,2955.00
2023-04-16T08:50:11.312Z,2830.00
2023-04-16T08:51:11.236Z,2785.00
2023-04-16T08:52:11.723Z,2518.00
2023-04-16T08:53:11.249Z,2501.00
2023-04-16T08:54:11.216Z,2561.00
2023-04-16T08:55:12.155Z,2830.00
2023-04-16T08:56:10.892Z,2836.00
2023-04-16T08:57:10.887Z,2742.00
2023-04-16T08:58:11.373Z,2808.00
2023-04-16T08:59:11.203Z,2763.00
2023-04-16T09:00:10.853Z,2850.00
2023-04-16T09:01:11.139Z,2875.00
2023-04-16T09:02:11.198Z,2680.00
2023-04-16T09:03:12.101Z,2480.00
2023-04-16T09:04:11.833Z,2512.00
2023-04-16T09:05:10.762Z,2413.00
2023-04-16T09:06:10.673Z,2583.00
2023-04-16T09:07:10.656Z,2667.00
2023-04-16T09:08:10.753Z,2810.00
2023-04-16T09:09:10.909Z,3147.00
2023-04-16T09:10:11.010Z,3231.00
2023-04-16T09:11:10.647Z,2888.00
2023-04-16T09:12:11.089Z,2899.00
2023-04-16T09:13:10.647Z,3019.00
2023-04-16T09:14:10.897Z,2966.00
2023-04-16T09:15:10.867Z,2920.00
2023-04-16T09:16:11.235Z,2985.00
2023-04-16T09:17:10.669Z,2918.00
2023-04-16T09:18:10.906Z,2876.00
2023-04-16T09:19:10.952Z,2900.00
2023-04-16T09:20:10.909Z,2975.00
2023-04-16T09:21:10.925Z,3339.00
2023-04-16T09:22:11.318Z,3704.00
2023-04-16T09:23:10.941Z,3893.00
2023-04-16T09:24:10.909Z,3757.00
2023-04-16T09:25:10.946Z,3800.00
2023-04-16T09:26:10.753Z,3600.00
2023-04-16T09:27:10.969Z,3639.00
2023-04-16T09:28:11.512Z,3823.00
2023-04-16T09:29:10.877Z,3889.00
2023-04-16T09:30:10.801Z,3456.00
2023-04-16T09:31:10.949Z,3374.00
2023-04-16T09:32:10.920Z,3254.00
2023-04-16T09:33:10.927Z,3172.00
2023-04-16T09:34:11.284Z,3086.00
2023-04-16T09:35:10.902Z,3381.00
2023-04-16T09:36:10.924Z,3571.00
2023-04-16T09:37:10.764Z,3609.00
2023-04-16T09:38:11.882Z,3021.00
2023-04-16T09:39:10.857Z,2765.00
2023-04-16T09:40:12.185Z,2736.00
2023-04-16T09:41:10.812Z,2648.00
2023-04-16T09:42:10.728Z,2523.00
2023-04-16T09:43:10.864Z,2729.00
2023-04-16T09:44:10.782Z,2681.00
2023-04-16T09:45:10.754Z,2470.00
2023-04-16T09:46:13.295Z,2586.00
2023-04-16T09:47:10.869Z,2594.00
2023-04-16T09:48:10.632Z,2498.00
2023-04-16T09:49:11.042Z,2230.00
2023-04-16T09:50:12.447Z,2057.00
2023-04-16T09:51:10.778Z,2329.00
2023-04-16T09:52:11.261Z,2388.00
2023-04-16T09:53:10.576Z,2276.00
2023-04-16T09:54:10.745Z,2306.00
2023-04-16T09:55:10.781Z,2325.00
2023-04-16T09:56:10.746Z,2359.00
2023-04-16T09:57:10.653Z,2388.00
2023-04-16T09:58:11.092Z,2317.00
2023-04-16T09:59:11.002Z,2347.00
2023-04-16T10:00:10.703Z,2514.00
2023-04-16T10:01:10.738Z,2828.00
2023-04-16T10:02:15.758Z,3059.00
2023-04-16T10:03:12.214Z,2803.00
2023-04-16T10:04:10.740Z,3071.00
2023-04-16T10:05:10.558Z,3424.00
2023-04-16T10:06:10.730Z,3285.00
2023-04-16T10:07:10.761Z,3209.00
2023-04-16T10:08:10.705Z,3230.00
2023-04-16T10:09:11.461Z,3142.00
2023-04-16T10:10:10.576Z,3157.00
2023-04-16T10:11:10.690Z,3164.00
2023-04-16T10:12:10.660Z,3202.00
2023-04-16T10:13:10.555Z,3308.00
2023-04-16T10:14:10.515Z,3398.00
2023-04-16T10:15:11.075Z,3801.00
2023-04-16T10:16:10.584Z,4169.00
2023-04-16T10:17:10.711Z,3888.00
2023-04-16T10:18:10.675Z,3364.00
2023-04-16T10:19:10.900Z,3429.00
2023-04-16T10:20:10.568Z,3778.00
2023-04-16T10:21:11.003Z,3788.00
2023-04-16T10:22:10.604Z,4164.00
2023-04-16T10:23:10.589Z,4008.00
2023-04-16T10:24:10.407Z,3763.00
2023-04-16T10:25:10.567Z,3449.00
2023-04-16T10:26:10.596Z,3134.00
2023-04-16T10:27:10.914Z,3046.00
2023-04-16T10:28:10.514Z,3306.00
2023-04-16T10:29:10.817Z,3837.00
2023-04-16T10:30:14.684Z,3447.00
2023-04-16T10:31:10.615Z,3367.00
2023-04-16T10:32:10.506Z,3327.00
2023-04-16T10:33:11.276Z,3326.00
2023-04-16T10:34:10.493Z,3072.00
2023-04-16T10:35:10.528Z,2950.00
2023-04-16T10:36:10.342Z,2893.00
2023-04-16T10:37:10.480Z,2978.00
2023-04-16T10:38:11.459Z,3123.00
2023-04-16T10:39:11.160Z,3182.00
2023-04-16T10:40:10.470Z,3153.00
2023-04-16T10:41:11.346Z,2940.00
2023-04-16T10:42:10.307Z,2803.00
2023-04-16T10:43:10.416Z,2828.00
2023-04-16T10:44:10.434Z,2769.00
2023-04-16T10:45:10.717Z,2766.00
2023-04-16T10:46:10.440Z,2955.00
2023-04-16T10:47:10.450Z,3058.00
2023-04-16T10:48:10.445Z,2877.00
2023-04-16T10:49:11.588Z,2998.00
2023-04-16T10:50:10.394Z,2997.00
2023-04-16T10:51:10.799Z,2960.00
2023-04-16T10:52:10.285Z,3001.00
2023-04-16T10:53:10.364Z,3263.00
2023-04-16T10:54:10.342Z,3448.00
2023-04-16T10:55:10.393Z,3496.00
2023-04-16T10:56:10.224Z,3502.00
2023-04-16T10:57:10.860Z,3466.00
2023-04-16T10:58:10.271Z,3653.00
2023-04-16T10:59:11.572Z,3656.00
2023-04-16T11:00:10.235Z,3753.00
2023-04-16T11:01:10.482Z,3804.00
2023-04-16T11:02:10.530Z,3725.00
2023-04-16T11:03:10.945Z,3489.00
2023-04-16T11:04:10.383Z,3465.00
2023-04-16T11:05:10.202Z,3256.00
2023-04-16T11:06:10.235Z,3342.00
2023-04-16T11:07:10.272Z,3527.00
2023-04-16T11:08:10.163Z,3707.00
2023-04-16T11:09:10.975Z,4140.00
2023-04-16T11:10:10.106Z,4404.00
2023-04-16T11:11:10.118Z,4149.00
2023-04-16T11:12:09.956Z,3770.00
2023-04-16T11:13:10.148Z,3393.00
2023-04-16T11:14:10.272Z,3484.00
2023-04-16T11:15:10.932Z,3212.00
2023-04-16T11:16:10.046Z,3221.00
2023-04-16T11:17:10.092Z,3261.00
2023-04-16T11:18:10.150Z,3141.00
2023-04-16T11:19:10.369Z,3305.00
2023-04-16T11:20:17.425Z,3308.00
2023-04-16T11:21:11.703Z,3060.00
2023-04-16T11:22:10.078Z,2995.00
2023-04-16T11:23:09.981Z,3172.00
2023-04-16T11:24:10.123Z,3153.00
2023-04-16T11:25:11.069Z,3539.00
2023-04-16T11:26:10.155Z,3972.00
2023-04-16T11:27:12.601Z,4070.00
2023-04-16T11:28:10.013Z,4222.00
2023-04-16T11:29:11.216Z,4653.00
2023-04-16T11:30:10.112Z,4914.00
2023-04-16T11:31:11.088Z,5038.00
2023-04-16T11:32:10.028Z,7267.00
2023-04-16T11:33:11.564Z,6120.00
2023-04-16T11:34:10.048Z,6091.00
2023-04-16T11:35:10.017Z,6284.00
2023-04-16T11:36:10.021Z,6835.00
2023-04-16T11:37:10.016Z,6199.00
2023-04-16T11:38:09.897Z,6464.00
2023-04-16T11:39:10.719Z,8329.00
2023-04-16T11:40:10.033Z,6762.00
2023-04-16T11:41:10.033Z,7205.00
2023-04-16T11:42:10.031Z,6414.00
2023-04-16T11:43:09.928Z,6507.00
2023-04-16T11:44:09.993Z,6447.00
2023-04-16T11:45:10.359Z,7143.00
2023-04-16T11:46:24.061Z,7282.00
2023-04-16T11:47:10.854Z,6244.00
2023-04-16T11:48:11.168Z,7361.00
2023-04-16T11:49:10.049Z,7004.00
2023-04-16T11:50:09.906Z,6548.00
2023-04-16T11:51:10.418Z,7622.00
2023-04-16T11:52:09.865Z,6988.00
2023-04-16T11:53:09.889Z,7247.00
2023-04-16T11:54:11.817Z,6486.00
2023-04-16T11:55:09.906Z,6240.00
2023-04-16T11:56:09.902Z,6171.00
2023-04-16T11:57:12.381Z,6587.00
2023-04-16T11:58:09.893Z,6020.00
2023-04-16T11:59:10.224Z,5895.00
2023-04-16T12:00:10.667Z,6918.00
2023-04-16T12:01:09.632Z,7121.00
2023-04-16T12:02:09.945Z,7047.00
2023-04-16T12:03:10.508Z,7272.00
2023-04-16T12:04:10.248Z,6540.00
2023-04-16T12:05:09.903Z,7257.00
2023-04-16T12:06:09.834Z,7116.00
2023-04-16T12:07:09.744Z,7118.00
2023-04-16T12:08:09.783Z,6754.00
2023-04-16T12:09:10.374Z,6177.00
2023-04-16T12:10:09.810Z,5822.00
2023-04-16T12:11:09.817Z,5133.00
2023-04-16T12:12:09.751Z,5063.00
2023-04-16T12:13:09.773Z,4912.00
2023-04-16T12:14:09.818Z,5037.00
2023-04-16T12:15:10.199Z,5051.00
2023-04-16T12:16:09.889Z,5085.00
2023-04-16T12:17:11.245Z,5032.00
2023-04-16T12:18:09.826Z,5636.00
2023-04-16T12:19:09.986Z,5720.00
2023-04-16T12:20:09.749Z,5627.00
2023-04-16T12:21:10.172Z,7019.00
2023-04-16T12:22:09.713Z,5360.00
2023-04-16T12:23:09.615Z,7437.00
2023-04-16T12:24:09.576Z,6087.00
2023-04-16T12:25:09.703Z,7088.00
2023-04-16T12:26:09.748Z,6321.00
2023-04-16T12:27:10.150Z,6288.00
2023-04-16T12:28:09.630Z,4648.00
2023-04-16T12:29:09.583Z,4462.00
2023-04-16T12:30:09.411Z,5560.00
2023-04-16T12:31:09.674Z,5420.00
2023-04-16T12:32:09.626Z,4935.00
2023-04-16T12:33:10.109Z,4795.00
2023-04-16T12:34:09.425Z,5744.00
2023-04-16T12:35:09.691Z,6003.00